Terminal Aerodrome Forecast
Issued by NWS

Home | Current Version | Previous Version | Text Only | Print | Product List | Glossary On
Versions: 1 2 3 4 5 6 7 8 9 10 11 12 13
000
FTUS46 KLOX 290500
TAFPMD
TAF
KPMD 290528Z 2906/3006 23006KT P6SM BKN120
     FM291000 VRB03KT P6SM SCT120
     FM291800 27008KT P6SM SCT200
     FM292200 25015G25KT P6SM SCT200
     FM300400 25015KT P6SM SCT200=

USA.gov is the U.S. government's official web portal to all federal, state and local government web resources and services.